createdAt,value
2023-11-19T00:06:39.357Z,98476.13
2023-11-19T00:16:42.288Z,98450.41
2023-11-19T00:26:47.146Z,98414.72
2023-11-19T00:36:51.067Z,98414.25
2023-11-19T00:47:00.945Z,98420.31
2023-11-19T00:57:04.824Z,98408.03
2023-11-19T01:07:13.623Z,98373.94
2023-11-19T01:17:17.390Z,98346.66
2023-11-19T01:27:22.746Z,98355.81
2023-11-19T01:37:25.655Z,98352.44
2023-11-19T01:47:30.805Z,98338.59
2023-11-19T01:57:33.782Z,98313.59
2023-11-19T02:07:37.970Z,98318.72
2023-11-19T02:17:40.954Z,98297.44
2023-11-19T02:27:50.632Z,98260.75
2023-11-19T02:37:53.434Z,98204.81
2023-11-19T02:47:57.613Z,98146.72
2023-11-19T02:58:01.233Z,98028.88
2023-11-19T03:08:05.746Z,98286.13
2023-11-19T03:18:08.595Z,98638.56
2023-11-19T03:28:13.301Z,98648.81
2023-11-19T03:38:16.616Z,98660.94
2023-11-19T03:48:20.944Z,98673.81
2023-11-19T03:58:23.775Z,98678.91
2023-11-19T04:08:27.939Z,98697.28
2023-11-19T04:18:30.868Z,98690.31
2023-11-19T04:28:35.332Z,98693.03
2023-11-19T04:38:39.540Z,98686.22
2023-11-19T04:48:43.693Z,98707.34
2023-11-19T04:58:46.480Z,98703.13
2023-11-19T05:08:50.623Z,98696.19
2023-11-19T05:18:53.396Z,98705.38
2023-11-19T05:28:57.564Z,98713.75
2023-11-19T05:39:00.466Z,98729.22
2023-11-19T05:49:05.594Z,98727.00
2023-11-19T05:59:15.894Z,98712.09
2023-11-19T06:09:20.520Z,98726.22
2023-11-19T06:19:27.264Z,98738.69
2023-11-19T06:29:32.662Z,98756.09
2023-11-19T06:39:36.402Z,98742.84
2023-11-19T06:49:40.539Z,98746.84
2023-11-19T06:59:44.006Z,98751.94
2023-11-19T07:09:48.996Z,98743.34
2023-11-19T07:19:52.117Z,98763.41
2023-11-19T07:29:56.365Z,98764.19
2023-11-19T07:39:59.223Z,98771.56
2023-11-19T07:50:03.652Z,98795.53
2023-11-19T08:00:08.247Z,98797.94
2023-11-19T08:10:17.096Z,98812.41
2023-11-19T08:20:19.940Z,98810.56
2023-11-19T08:30:24.134Z,98831.72
2023-11-19T08:40:27.208Z,98826.03
2023-11-19T08:50:31.436Z,98838.47
2023-11-19T09:00:34.371Z,98830.38
2023-11-19T09:10:38.499Z,98844.34
2023-11-19T09:20:41.333Z,98837.00
2023-11-19T09:30:45.663Z,98829.72
2023-11-19T09:40:48.747Z,98829.25
2023-11-19T09:50:54.137Z,98818.25
2023-11-19T10:01:23.527Z,98841.56
2023-11-19T10:11:23.528Z,98831.38
2023-11-19T10:21:28.786Z,98815.66
2023-11-19T10:31:33.032Z,98801.91
2023-11-19T10:41:36.064Z,98802.88
2023-11-19T10:51:45.778Z,98804.25
2023-11-19T11:01:50.487Z,98801.56
2023-11-19T11:11:54.900Z,98792.56
2023-11-19T11:21:58.595Z,98789.31
2023-11-19T11:32:11.148Z,98792.63
2023-11-19T11:42:33.592Z,98791.44
2023-11-19T11:53:16.305Z,98769.34
2023-11-19T12:03:22.768Z,98761.41
2023-11-19T12:13:32.089Z,98758.94
2023-11-19T12:23:35.212Z,98748.75
2023-11-19T12:33:39.902Z,98750.47
2023-11-19T12:53:54.010Z,98733.06
2023-11-19T13:03:56.839Z,98723.44
2023-11-19T13:14:04.146Z,98752.50
2023-11-19T13:24:07.560Z,98749.13
2023-11-19T13:34:11.897Z,98742.22
2023-11-19T13:44:14.832Z,98735.63
2023-11-19T13:54:20.653Z,98728.59
2023-11-19T14:04:23.674Z,98728.25
2023-11-19T14:14:27.908Z,98715.88
2023-11-19T14:24:30.821Z,98721.34
2023-11-19T14:34:35.030Z,98722.59
2023-11-19T14:44:37.892Z,98707.63
2023-11-19T14:54:42.320Z,98710.03
2023-11-19T15:04:46.580Z,98720.56
2023-11-19T15:14:50.874Z,98717.28
2023-11-19T15:24:53.871Z,98726.25
2023-11-19T15:34:58.128Z,98713.41
2023-11-19T15:45:00.997Z,98727.53
2023-11-19T15:55:05.801Z,98706.41
2023-11-19T16:05:12.051Z,98702.06
2023-11-19T16:15:36.598Z,98712.75
2023-11-19T16:25:40.277Z,98701.16
2023-11-19T16:35:44.540Z,98708.63
2023-11-19T16:45:47.505Z,98714.75
2023-11-19T16:55:51.749Z,98712.41
2023-11-19T17:05:54.859Z,98719.94
2023-11-19T17:15:59.376Z,98722.78
2023-11-19T17:26:02.758Z,98729.66
2023-11-19T17:36:08.203Z,98718.59
2023-11-19T17:46:11.224Z,98726.25
2023-11-19T17:56:15.764Z,98695.94
2023-11-19T18:06:19.440Z,98706.63
2023-11-19T18:16:24.782Z,98699.03
2023-11-19T18:26:44.662Z,98690.56
2023-11-19T18:36:49.373Z,98693.97
2023-11-19T18:46:52.500Z,98712.50
2023-11-19T18:56:58.267Z,98705.47
2023-11-19T19:07:02.816Z,98694.97
2023-11-19T19:17:09.204Z,98702.97
2023-11-19T19:27:12.183Z,98707.63
2023-11-19T19:37:16.526Z,98706.72
2023-11-19T19:47:20.104Z,98655.13
2023-11-19T19:57:24.485Z,98660.00
2023-11-19T20:07:27.433Z,98652.78
2023-11-19T20:17:31.824Z,98595.28
2023-11-19T20:27:34.979Z,98151.81
2023-11-19T20:37:39.358Z,98097.59
2023-11-19T20:47:42.897Z,98143.63
2023-11-19T20:57:47.296Z,98173.94
2023-11-19T21:07:50.490Z,98195.69
2023-11-19T21:17:54.908Z,98209.03
2023-11-19T21:27:57.866Z,98225.06
2023-11-19T21:38:02.109Z,98226.03
2023-11-19T21:48:05.319Z,98199.88
2023-11-19T21:58:09.504Z,98186.00
2023-11-19T22:08:18.561Z,98142.44
2023-11-19T22:23:36.130Z,98113.97
2023-11-19T22:33:39.548Z,98306.41
2023-11-19T22:43:44.726Z,98641.75
2023-11-19T22:53:47.506Z,98692.00
2023-11-19T23:03:51.709Z,98717.88
2023-11-19T23:13:54.542Z,98727.78
2023-11-19T23:23:58.789Z,98729.13
2023-11-19T23:34:02.268Z,98737.72
2023-11-19T23:44:07.021Z,98719.13
2023-11-19T23:54:10.027Z,98719.75
